»·PEaware :: N15JG KGTF-KBIL

N15JG :: KGTF-KBIL

FLIGHT INFORMATION

Flight Status: Arrived
Operator: Privately registered:
United States
More flights under this callsign
Pilot: Anonymous 11047 (11047)
Aircraft: CESSNA 172 SKYHAWK
(C172)
More flights by this aircraft type
Origin: KGTF Great Falls Intl
United States
Destination: KBIL Billings Logan Intl
United States
More flights between these airports :: More routes between these airports
Route: +
File this flight plan on PilotEdge
Remarks:
Altitude:
(Current/Filed)
0ft
Speed:
(Current/Filed)
0kts
Departed: 15-Apr-17 11:36 AM
Arrived: 15-Apr-17 12:24 PM
Distance/Time
Traveled:
154nm/0:48
Distance/Time
To Go:
Arrived

Flight Plot

Page will automatically refresh every two minutes.

Flight plan parsing failed; only flown route is shown


Map Options




Map Legend


Flown Route
Filed Route
Departure Airport
Arrival Airport
Navaid (VOR, NDB)
Fix

Horizontal Profiles

Position Reports

Time Latitude Longitude Heading Altitude Ground
Speed
15-Apr-17 11:36 47.389915 -111.290046 137 9582ft 162kts
15-Apr-17 11:37 47.347879 -111.242387 142 10007ft 207kts
15-Apr-17 11:38 47.317041 -111.172115 117 10032ft 207kts
15-Apr-17 11:39 47.300842 -111.089632 105 9833ft 210kts
15-Apr-17 11:40 47.277565 -111.010773 116 9669ft 209kts
15-Apr-17 11:41 47.247905 -110.938931 126 9746ft 204kts
15-Apr-17 11:42 47.213471 -110.873693 127 9983ft 202kts
15-Apr-17 11:43 47.178927 -110.805520 122 9880ft 211kts
15-Apr-17 11:44 47.153197 -110.728304 113 9850ft 210kts
15-Apr-17 11:45 47.128658 -110.649798 118 9778ft 211kts
15-Apr-17 11:46 47.096810 -110.577719 127 9775ft 209kts
15-Apr-17 11:47 47.060592 -110.510233 130 9682ft 212kts
15-Apr-17 11:48 47.025593 -110.441710 120 9735ft 207kts
15-Apr-17 11:49 46.994351 -110.369583 126 9621ft 213kts
15-Apr-17 11:50 46.961124 -110.301055 124 9756ft 204kts
15-Apr-17 11:51 46.927595 -110.231029 127 9482ft 216kts
15-Apr-17 11:52 46.892824 -110.165967 131 9569ft 211kts
15-Apr-17 11:53 46.854234 -110.102825 140 9570ft 212kts
15-Apr-17 11:54 46.815738 -110.037452 122 9417ft 213kts
15-Apr-17 11:55 46.786157 -109.963229 121 9392ft 209kts
15-Apr-17 11:56 46.747871 -109.898901 139 9298ft 211kts
15-Apr-17 11:57 46.702448 -109.848828 144 9507ft 206kts
15-Apr-17 11:58 46.658512 -109.798916 134 9919ft 196kts
15-Apr-17 11:59 46.619390 -109.741195 134 9326ft 237kts
15-Apr-17 12:00 46.577301 -109.681240 136 9536ft 217kts
15-Apr-17 12:01 46.534715 -109.622066 135 9702ft 202kts
15-Apr-17 12:02 46.495376 -109.563746 130 9918ft 202kts
15-Apr-17 12:03 46.460151 -109.499665 128 10111ft 203kts
15-Apr-17 12:04 46.423228 -109.435060 130 9865ft 219kts
15-Apr-17 12:05 46.377198 -109.378672 144 9669ft 216kts
15-Apr-17 12:06 46.326847 -109.334420 150 9468ft 215kts
15-Apr-17 12:07 46.274509 -109.296736 153 9618ft 205kts
15-Apr-17 12:08 46.235916 -109.238072 116 9046ft 213kts
15-Apr-17 12:09 46.212445 -109.159908 112 8547ft 211kts
15-Apr-17 12:10 46.183811 -109.086565 129 8025ft 209kts
15-Apr-17 12:11 46.141547 -109.029687 140 7375ft 209kts
15-Apr-17 12:12 46.093322 -108.989147 159 6888ft 196kts
15-Apr-17 12:13 46.048367 -108.948671 128 6446ft 192kts
15-Apr-17 12:14 46.014058 -108.888250 139 5884ft 193kts
15-Apr-17 12:15 45.970381 -108.845840 144 5567ft 186kts
15-Apr-17 12:16 45.933535 -108.796950 128 5554ft 177kts
15-Apr-17 12:17 45.900374 -108.746452 138 5599ft 172kts
15-Apr-17 12:18 45.868596 -108.703566 139 5585ft 153kts
15-Apr-17 12:19 45.837058 -108.666187 136 5683ft 143kts
15-Apr-17 12:20 45.819982 -108.620478 108 4901ft 121kts
15-Apr-17 12:21 45.809660 -108.576698 113 4469ft 109kts
15-Apr-17 12:22 45.795945 -108.540070 126 4365ft 104kts
15-Apr-17 12:23 45.781875 -108.503995 104 4326ft 99kts
15-Apr-17 12:24 45.798953 -108.505161 287 3653ft 88kts
15-Apr-17 12:25 45.805231 -108.527975 285 3489ft 19kts
15-Apr-17 12:26 45.804426 -108.530700 266 3501ft 13kts
15-Apr-17 12:27 45.803991 -108.535514 268 3520ft 0kts
15-Apr-17 12:28 45.803991 -108.535515 268 3520ft 0kts
15-Apr-17 12:29 45.803991 -108.535501 267 3520ft 0kts
15-Apr-17 12:30 45.803991 -108.535501 267 3520ft 0kts
15-Apr-17 12:31 45.803991 -108.535501 267 3520ft 0kts

Navigation Log

Ident Type
Flight plan parsing failed, navigation log unavailable